sensor_id;sensor_type;location;lat;lon;timestamp;P1;durP1;ratioP1;P2;durP2;ratioP2
6763;SDS011;47432;0.000;0.000;2022-07-29T00:00:26;39.93;;;12.30;;
6763;SDS011;47432;0.000;0.000;2022-07-29T00:02:52;26.10;;;11.60;;
6763;SDS011;47432;0.000;0.000;2022-07-29T00:05:18;22.47;;;10.13;;
6763;SDS011;47432;0.000;0.000;2022-07-29T00:07:44;27.60;;;11.20;;
6763;SDS011;47432;0.000;0.000;2022-07-29T00:10:10;23.27;;;9.27;;
6763;SDS011;47432;0.000;0.000;2022-07-29T00:12:38;30.13;;;11.23;;
6763;SDS011;47432;0.000;0.000;2022-07-29T00:15:04;28.37;;;11.73;;
6763;SDS011;47432;0.000;0.000;2022-07-29T00:17:33;25.03;;;10.23;;
6763;SDS011;47432;0.000;0.000;2022-07-29T00:19:59;30.43;;;10.87;;
6763;SDS011;47432;0.000;0.000;2022-07-29T00:22:25;28.47;;;10.50;;
6763;SDS011;47432;0.000;0.000;2022-07-29T00:24:51;26.00;;;10.20;;
6763;SDS011;47432;0.000;0.000;2022-07-29T00:27:17;28.27;;;10.20;;
6763;SDS011;47432;0.000;0.000;2022-07-29T00:29:43;28.07;;;10.07;;
6763;SDS011;47432;0.000;0.000;2022-07-29T00:32:12;29.90;;;11.30;;
6763;SDS011;47432;0.000;0.000;2022-07-29T00:34:38;29.40;;;11.50;;
6763;SDS011;47432;0.000;0.000;2022-07-29T00:37:22;27.23;;;9.83;;
6763;SDS011;47432;0.000;0.000;2022-07-29T00:39:48;27.20;;;9.83;;
6763;SDS011;47432;0.000;0.000;2022-07-29T00:42:14;32.20;;;11.50;;
6763;SDS011;47432;0.000;0.000;2022-07-29T00:44:41;29.63;;;10.43;;
6763;SDS011;47432;0.000;0.000;2022-07-29T00:47:08;34.90;;;11.17;;
6763;SDS011;47432;0.000;0.000;2022-07-29T00:49:34;26.97;;;10.10;;
6763;SDS011;47432;0.000;0.000;2022-07-29T00:52:01;35.00;;;11.73;;
6763;SDS011;47432;0.000;0.000;2022-07-29T00:54:27;34.60;;;12.53;;
6763;SDS011;47432;0.000;0.000;2022-07-29T00:56:54;29.17;;;9.83;;
6763;SDS011;47432;0.000;0.000;2022-07-29T00:59:20;28.33;;;10.00;;
6763;SDS011;47432;0.000;0.000;2022-07-29T01:01:46;24.37;;;9.80;;
6763;SDS011;47432;0.000;0.000;2022-07-29T01:04:12;27.13;;;10.10;;
6763;SDS011;47432;0.000;0.000;2022-07-29T01:06:38;27.13;;;10.40;;
6763;SDS011;47432;0.000;0.000;2022-07-29T01:09:05;26.80;;;9.33;;
6763;SDS011;47432;0.000;0.000;2022-07-29T01:11:31;29.27;;;10.30;;
6763;SDS011;47432;0.000;0.000;2022-07-29T01:13:58;28.00;;;9.90;;
6763;SDS011;47432;0.000;0.000;2022-07-29T01:16:25;28.00;;;10.47;;
6763;SDS011;47432;0.000;0.000;2022-07-29T01:18:54;27.87;;;11.10;;
6763;SDS011;47432;0.000;0.000;2022-07-29T01:24:04;30.17;;;10.90;;
6763;SDS011;47432;0.000;0.000;2022-07-29T01:26:37;26.53;;;10.10;;
6763;SDS011;47432;0.000;0.000;2022-07-29T01:31:51;28.93;;;9.77;;
6763;SDS011;47432;0.000;0.000;2022-07-29T01:34:31;26.27;;;9.57;;
6763;SDS011;47432;0.000;0.000;2022-07-29T01:39:45;29.07;;;9.63;;
6763;SDS011;47432;0.000;0.000;2022-07-29T01:42:14;31.03;;;10.30;;
6763;SDS011;47432;0.000;0.000;2022-07-29T01:47:17;26.30;;;9.03;;
6763;SDS011;47432;0.000;0.000;2022-07-29T01:49:46;31.13;;;10.17;;
6763;SDS011;47432;0.000;0.000;2022-07-29T01:52:16;24.77;;;9.77;;
6763;SDS011;47432;0.000;0.000;2022-07-29T01:54:45;32.33;;;10.30;;
6763;SDS011;47432;0.000;0.000;2022-07-29T01:57:14;27.13;;;9.80;;
6763;SDS011;47432;0.000;0.000;2022-07-29T01:59:42;27.00;;;8.97;;
6763;SDS011;47432;0.000;0.000;2022-07-29T02:02:11;35.60;;;11.70;;
6763;SDS011;47432;0.000;0.000;2022-07-29T02:04:39;28.97;;;9.40;;
6763;SDS011;47432;0.000;0.000;2022-07-29T02:07:10;32.50;;;10.30;;
6763;SDS011;47432;0.000;0.000;2022-07-29T02:09:39;29.53;;;9.13;;
6763;SDS011;47432;0.000;0.000;2022-07-29T02:12:06;33.67;;;9.77;;
6763;SDS011;47432;0.000;0.000;2022-07-29T02:14:34;27.80;;;9.30;;
6763;SDS011;47432;0.000;0.000;2022-07-29T02:17:02;34.53;;;11.10;;
6763;SDS011;47432;0.000;0.000;2022-07-29T02:19:28;30.97;;;9.53;;
6763;SDS011;47432;0.000;0.000;2022-07-29T02:21:55;31.27;;;9.30;;
6763;SDS011;47432;0.000;0.000;2022-07-29T02:24:22;23.57;;;7.57;;
6763;SDS011;47432;0.000;0.000;2022-07-29T02:26:52;32.23;;;9.67;;
6763;SDS011;47432;0.000;0.000;2022-07-29T02:29:20;26.00;;;7.80;;
6763;SDS011;47432;0.000;0.000;2022-07-29T02:31:47;28.53;;;9.03;;
6763;SDS011;47432;0.000;0.000;2022-07-29T02:34:14;27.50;;;9.40;;
6763;SDS011;47432;0.000;0.000;2022-07-29T02:36:41;25.53;;;8.60;;
6763;SDS011;47432;0.000;0.000;2022-07-29T02:39:09;30.73;;;9.07;;
6763;SDS011;47432;0.000;0.000;2022-07-29T02:41:43;24.60;;;7.93;;
6763;SDS011;47432;0.000;0.000;2022-07-29T02:44:14;24.87;;;7.87;;
6763;SDS011;47432;0.000;0.000;2022-07-29T02:46:45;27.10;;;8.57;;
6763;SDS011;47432;0.000;0.000;2022-07-29T02:49:16;28.90;;;8.60;;
6763;SDS011;47432;0.000;0.000;2022-07-29T02:51:49;30.73;;;9.13;;
6763;SDS011;47432;0.000;0.000;2022-07-29T02:54:22;27.20;;;8.33;;
6763;SDS011;47432;0.000;0.000;2022-07-29T02:56:53;23.30;;;7.80;;
6763;SDS011;47432;0.000;0.000;2022-07-29T02:59:21;34.33;;;8.50;;
6763;SDS011;47432;0.000;0.000;2022-07-29T03:01:48;27.97;;;8.97;;
6763;SDS011;47432;0.000;0.000;2022-07-29T03:04:17;22.20;;;7.40;;
6763;SDS011;47432;0.000;0.000;2022-07-29T03:06:44;28.53;;;8.23;;
6763;SDS011;47432;0.000;0.000;2022-07-29T03:09:11;26.03;;;7.90;;
6763;SDS011;47432;0.000;0.000;2022-07-29T03:11:37;28.17;;;9.07;;
6763;SDS011;47432;0.000;0.000;2022-07-29T03:14:04;30.07;;;9.03;;
6763;SDS011;47432;0.000;0.000;2022-07-29T03:16:31;24.27;;;7.80;;
6763;SDS011;47432;0.000;0.000;2022-07-29T03:18:57;23.93;;;7.57;;
6763;SDS011;47432;0.000;0.000;2022-07-29T03:21:26;43.10;;;12.00;;
6763;SDS011;47432;0.000;0.000;2022-07-29T03:23:54;27.60;;;8.70;;
6763;SDS011;47432;0.000;0.000;2022-07-29T03:26:19;31.07;;;9.20;;
6763;SDS011;47432;0.000;0.000;2022-07-29T03:28:45;26.80;;;8.70;;
6763;SDS011;47432;0.000;0.000;2022-07-29T03:31:12;25.53;;;8.43;;
6763;SDS011;47432;0.000;0.000;2022-07-29T03:33:37;32.70;;;9.77;;
6763;SDS011;47432;0.000;0.000;2022-07-29T03:36:03;25.80;;;8.10;;
6763;SDS011;47432;0.000;0.000;2022-07-29T03:38:30;21.87;;;7.50;;
6763;SDS011;47432;0.000;0.000;2022-07-29T03:41:01;36.47;;;9.43;;
6763;SDS011;47432;0.000;0.000;2022-07-29T03:43:28;28.27;;;8.60;;
6763;SDS011;47432;0.000;0.000;2022-07-29T03:45:58;32.67;;;10.00;;
6763;SDS011;47432;0.000;0.000;2022-07-29T03:48:28;24.03;;;8.70;;
6763;SDS011;47432;0.000;0.000;2022-07-29T03:50:56;25.93;;;8.30;;
6763;SDS011;47432;0.000;0.000;2022-07-29T03:53:25;23.53;;;7.43;;
6763;SDS011;47432;0.000;0.000;2022-07-29T03:55:52;30.63;;;9.10;;
6763;SDS011;47432;0.000;0.000;2022-07-29T03:58:19;25.17;;;7.70;;
6763;SDS011;47432;0.000;0.000;2022-07-29T04:00:45;27.33;;;8.77;;
6763;SDS011;47432;0.000;0.000;2022-07-29T04:03:11;25.67;;;8.53;;
6763;SDS011;47432;0.000;0.000;2022-07-29T04:05:38;31.30;;;8.70;;
6763;SDS011;47432;0.000;0.000;2022-07-29T04:08:04;29.73;;;9.13;;
6763;SDS011;47432;0.000;0.000;2022-07-29T04:10:30;30.30;;;8.90;;
6763;SDS011;47432;0.000;0.000;2022-07-29T04:12:56;27.93;;;8.60;;
6763;SDS011;47432;0.000;0.000;2022-07-29T04:15:22;25.93;;;8.50;;
6763;SDS011;47432;0.000;0.000;2022-07-29T04:17:48;25.70;;;8.20;;
6763;SDS011;47432;0.000;0.000;2022-07-29T04:20:16;33.07;;;9.20;;
6763;SDS011;47432;0.000;0.000;2022-07-29T04:22:43;27.70;;;7.73;;
6763;SDS011;47432;0.000;0.000;2022-07-29T04:25:09;28.60;;;8.73;;
6763;SDS011;47432;0.000;0.000;2022-07-29T04:27:35;26.53;;;8.37;;
6763;SDS011;47432;0.000;0.000;2022-07-29T04:30:21;24.73;;;7.30;;
6763;SDS011;47432;0.000;0.000;2022-07-29T04:32:47;26.87;;;8.03;;
6763;SDS011;47432;0.000;0.000;2022-07-29T04:35:12;23.80;;;6.50;;
6763;SDS011;47432;0.000;0.000;2022-07-29T04:37:38;29.33;;;8.37;;
6763;SDS011;47432;0.000;0.000;2022-07-29T04:40:07;25.77;;;7.50;;
6763;SDS011;47432;0.000;0.000;2022-07-29T04:42:35;25.03;;;6.90;;
6763;SDS011;47432;0.000;0.000;2022-07-29T04:45:01;28.50;;;8.57;;
6763;SDS011;47432;0.000;0.000;2022-07-29T04:47:27;26.30;;;8.27;;
6763;SDS011;47432;0.000;0.000;2022-07-29T04:49:53;26.90;;;7.90;;
6763;SDS011;47432;0.000;0.000;2022-07-29T04:52:21;27.37;;;7.60;;
6763;SDS011;47432;0.000;0.000;2022-07-29T04:54:47;26.13;;;7.60;;
6763;SDS011;47432;0.000;0.000;2022-07-29T04:57:13;34.33;;;8.73;;
6763;SDS011;47432;0.000;0.000;2022-07-29T04:59:39;25.77;;;7.10;;
6763;SDS011;47432;0.000;0.000;2022-07-29T05:02:05;26.43;;;7.20;;
6763;SDS011;47432;0.000;0.000;2022-07-29T05:04:31;30.70;;;7.77;;
6763;SDS011;47432;0.000;0.000;2022-07-29T05:06:57;25.23;;;7.33;;
6763;SDS011;47432;0.000;0.000;2022-07-29T05:09:23;25.40;;;6.67;;
6763;SDS011;47432;0.000;0.000;2022-07-29T05:11:48;24.03;;;6.50;;
6763;SDS011;47432;0.000;0.000;2022-07-29T05:14:16;25.87;;;7.00;;
6763;SDS011;47432;0.000;0.000;2022-07-29T05:16:42;30.27;;;7.50;;
6763;SDS011;47432;0.000;0.000;2022-07-29T05:19:08;21.97;;;6.10;;
6763;SDS011;47432;0.000;0.000;2022-07-29T05:21:35;34.83;;;8.43;;
6763;SDS011;47432;0.000;0.000;2022-07-29T05:24:01;29.40;;;7.10;;
6763;SDS011;47432;0.000;0.000;2022-07-29T05:26:27;26.60;;;6.93;;
6763;SDS011;47432;0.000;0.000;2022-07-29T05:28:57;31.20;;;7.47;;
6763;SDS011;47432;0.000;0.000;2022-07-29T05:31:23;25.23;;;5.77;;
6763;SDS011;47432;0.000;0.000;2022-07-29T05:33:49;22.80;;;5.47;;
6763;SDS011;47432;0.000;0.000;2022-07-29T05:36:15;21.80;;;5.27;;
6763;SDS011;47432;0.000;0.000;2022-07-29T05:38:43;32.23;;;7.20;;
6763;SDS011;47432;0.000;0.000;2022-07-29T05:41:09;20.90;;;4.60;;
6763;SDS011;47432;0.000;0.000;2022-07-29T05:43:35;20.73;;;5.43;;
6763;SDS011;47432;0.000;0.000;2022-07-29T05:46:06;21.40;;;4.93;;
6763;SDS011;47432;0.000;0.000;2022-07-29T05:48:32;23.37;;;5.23;;
6763;SDS011;47432;0.000;0.000;2022-07-29T05:50:58;22.40;;;5.30;;
6763;SDS011;47432;0.000;0.000;2022-07-29T05:53:24;20.00;;;5.10;;
6763;SDS011;47432;0.000;0.000;2022-07-29T05:55:52;18.77;;;5.00;;
6763;SDS011;47432;0.000;0.000;2022-07-29T05:58:18;21.40;;;5.30;;
6763;SDS011;47432;0.000;0.000;2022-07-29T06:00:44;19.10;;;5.13;;
6763;SDS011;47432;0.000;0.000;2022-07-29T06:03:10;17.37;;;4.80;;
6763;SDS011;47432;0.000;0.000;2022-07-29T06:05:38;18.53;;;4.97;;
6763;SDS011;47432;0.000;0.000;2022-07-29T06:08:05;19.00;;;4.97;;
6763;SDS011;47432;0.000;0.000;2022-07-29T06:10:32;22.70;;;5.77;;
6763;SDS011;47432;0.000;0.000;2022-07-29T06:12:59;20.57;;;5.30;;
6763;SDS011;47432;0.000;0.000;2022-07-29T06:15:25;24.70;;;5.93;;
6763;SDS011;47432;0.000;0.000;2022-07-29T06:17:53;20.60;;;5.63;;
6763;SDS011;47432;0.000;0.000;2022-07-29T06:20:19;21.27;;;5.33;;
6763;SDS011;47432;0.000;0.000;2022-07-29T06:22:45;18.30;;;4.80;;
6763;SDS011;47432;0.000;0.000;2022-07-29T06:25:11;20.50;;;5.53;;
6763;SDS011;47432;0.000;0.000;2022-07-29T06:27:37;17.50;;;5.27;;
6763;SDS011;47432;0.000;0.000;2022-07-29T06:30:03;19.30;;;5.47;;
6763;SDS011;47432;0.000;0.000;2022-07-29T06:32:32;16.50;;;5.10;;
6763;SDS011;47432;0.000;0.000;2022-07-29T06:35:00;20.73;;;5.63;;
6763;SDS011;47432;0.000;0.000;2022-07-29T06:37:26;20.37;;;5.53;;
6763;SDS011;47432;0.000;0.000;2022-07-29T06:39:52;26.40;;;6.40;;
6763;SDS011;47432;0.000;0.000;2022-07-29T06:42:41;17.90;;;5.33;;
6763;SDS011;47432;0.000;0.000;2022-07-29T06:45:08;21.80;;;5.90;;
6763;SDS011;47432;0.000;0.000;2022-07-29T06:47:35;18.53;;;5.70;;
6763;SDS011;47432;0.000;0.000;2022-07-29T06:50:03;24.43;;;6.10;;
6763;SDS011;47432;0.000;0.000;2022-07-29T06:52:30;24.10;;;6.10;;
6763;SDS011;47432;0.000;0.000;2022-07-29T06:54:58;17.00;;;5.30;;
6763;SDS011;47432;0.000;0.000;2022-07-29T06:57:27;21.70;;;6.13;;
6763;SDS011;47432;0.000;0.000;2022-07-29T06:59:53;21.20;;;6.30;;
6763;SDS011;47432;0.000;0.000;2022-07-29T07:02:21;24.73;;;6.57;;
6763;SDS011;47432;0.000;0.000;2022-07-29T07:04:50;24.23;;;6.70;;
6763;SDS011;47432;0.000;0.000;2022-07-29T07:07:19;24.27;;;7.17;;
6763;SDS011;47432;0.000;0.000;2022-07-29T07:09:45;18.90;;;5.80;;
6763;SDS011;47432;0.000;0.000;2022-07-29T07:12:13;23.97;;;6.73;;
6763;SDS011;47432;0.000;0.000;2022-07-29T07:14:42;20.43;;;5.47;;
6763;SDS011;47432;0.000;0.000;2022-07-29T07:17:10;22.07;;;6.37;;
6763;SDS011;47432;0.000;0.000;2022-07-29T07:19:36;25.10;;;7.20;;
6763;SDS011;47432;0.000;0.000;2022-07-29T07:22:02;25.00;;;6.83;;
6763;SDS011;47432;0.000;0.000;2022-07-29T07:24:28;23.00;;;6.57;;
6763;SDS011;47432;0.000;0.000;2022-07-29T07:26:57;20.30;;;6.53;;
6763;SDS011;47432;0.000;0.000;2022-07-29T07:29:23;20.87;;;7.10;;
6763;SDS011;47432;0.000;0.000;2022-07-29T07:31:51;19.50;;;6.30;;
6763;SDS011;47432;0.000;0.000;2022-07-29T07:34:20;21.13;;;6.13;;
6763;SDS011;47432;0.000;0.000;2022-07-29T07:36:46;15.37;;;5.20;;
6763;SDS011;47432;0.000;0.000;2022-07-29T07:39:12;18.77;;;5.97;;
6763;SDS011;47432;0.000;0.000;2022-07-29T07:41:38;18.07;;;5.80;;
6763;SDS011;47432;0.000;0.000;2022-07-29T07:44:04;20.97;;;5.90;;
6763;SDS011;47432;0.000;0.000;2022-07-29T07:46:31;20.87;;;6.10;;
6763;SDS011;47432;0.000;0.000;2022-07-29T07:48:59;22.50;;;6.07;;
6763;SDS011;47432;0.000;0.000;2022-07-29T07:51:28;18.23;;;5.40;;
6763;SDS011;47432;0.000;0.000;2022-07-29T07:53:53;23.60;;;7.10;;
6763;SDS011;47432;0.000;0.000;2022-07-29T07:56:19;21.13;;;6.50;;
6763;SDS011;47432;0.000;0.000;2022-07-29T07:58:45;20.70;;;6.13;;
6763;SDS011;47432;0.000;0.000;2022-07-29T08:01:14;21.67;;;6.60;;
6763;SDS011;47432;0.000;0.000;2022-07-29T08:03:43;20.97;;;6.60;;
6763;SDS011;47432;0.000;0.000;2022-07-29T08:06:09;18.03;;;5.50;;
6763;SDS011;47432;0.000;0.000;2022-07-29T08:08:35;17.80;;;5.50;;
6763;SDS011;47432;0.000;0.000;2022-07-29T08:11:03;20.20;;;6.47;;
6763;SDS011;47432;0.000;0.000;2022-07-29T08:13:32;22.80;;;6.30;;
6763;SDS011;47432;0.000;0.000;2022-07-29T08:16:00;19.80;;;6.80;;
6763;SDS011;47432;0.000;0.000;2022-07-29T08:18:28;21.60;;;6.03;;
6763;SDS011;47432;0.000;0.000;2022-07-29T08:20:57;21.50;;;6.70;;
6763;SDS011;47432;0.000;0.000;2022-07-29T08:23:23;20.83;;;7.00;;
6763;SDS011;47432;0.000;0.000;2022-07-29T08:25:51;20.13;;;6.30;;
6763;SDS011;47432;0.000;0.000;2022-07-29T08:28:17;25.23;;;6.57;;
6763;SDS011;47432;0.000;0.000;2022-07-29T08:30:44;24.57;;;6.93;;
6763;SDS011;47432;0.000;0.000;2022-07-29T08:33:10;24.03;;;6.80;;
6763;SDS011;47432;0.000;0.000;2022-07-29T08:35:36;25.27;;;6.80;;
6763;SDS011;47432;0.000;0.000;2022-07-29T08:38:03;23.63;;;6.87;;
6763;SDS011;47432;0.000;0.000;2022-07-29T08:40:29;25.30;;;7.33;;
6763;SDS011;47432;0.000;0.000;2022-07-29T08:42:56;23.83;;;7.40;;
6763;SDS011;47432;0.000;0.000;2022-07-29T08:45:22;21.47;;;6.60;;
6763;SDS011;47432;0.000;0.000;2022-07-29T08:47:48;19.40;;;6.00;;
6763;SDS011;47432;0.000;0.000;2022-07-29T08:50:14;23.57;;;7.60;;
6763;SDS011;47432;0.000;0.000;2022-07-29T08:52:40;21.40;;;6.17;;
6763;SDS011;47432;0.000;0.000;2022-07-29T08:55:07;26.53;;;7.13;;
6763;SDS011;47432;0.000;0.000;2022-07-29T08:57:37;22.33;;;6.53;;
6763;SDS011;47432;0.000;0.000;2022-07-29T09:00:06;16.23;;;6.00;;
6763;SDS011;47432;0.000;0.000;2022-07-29T09:02:38;23.10;;;7.10;;
6763;SDS011;47432;0.000;0.000;2022-07-29T09:05:07;12.50;;;4.30;;
6763;SDS011;47432;0.000;0.000;2022-07-29T09:07:34;18.40;;;5.67;;
6763;SDS011;47432;0.000;0.000;2022-07-29T09:10:01;14.27;;;5.43;;
6763;SDS011;47432;0.000;0.000;2022-07-29T09:12:31;25.03;;;7.10;;
6763;SDS011;47432;0.000;0.000;2022-07-29T09:14:59;17.13;;;5.73;;
6763;SDS011;47432;0.000;0.000;2022-07-29T09:17:44;22.60;;;6.67;;
6763;SDS011;47432;0.000;0.000;2022-07-29T09:20:12;21.33;;;6.33;;
6763;SDS011;47432;0.000;0.000;2022-07-29T09:22:41;22.87;;;6.70;;
6763;SDS011;47432;0.000;0.000;2022-07-29T09:25:07;17.87;;;6.30;;
6763;SDS011;47432;0.000;0.000;2022-07-29T09:27:34;15.63;;;6.10;;
6763;SDS011;47432;0.000;0.000;2022-07-29T09:30:04;19.63;;;6.27;;
6763;SDS011;47432;0.000;0.000;2022-07-29T09:32:32;16.13;;;6.10;;
6763;SDS011;47432;0.000;0.000;2022-07-29T09:35:18;15.93;;;5.63;;
6763;SDS011;47432;0.000;0.000;2022-07-29T09:37:46;15.97;;;5.70;;
6763;SDS011;47432;0.000;0.000;2022-07-29T09:42:43;12.83;;;5.73;;
6763;SDS011;47432;0.000;0.000;2022-07-29T09:45:09;16.27;;;5.90;;
6763;SDS011;47432;0.000;0.000;2022-07-29T09:47:51;17.53;;;6.23;;
6763;SDS011;47432;0.000;0.000;2022-07-29T09:50:22;19.33;;;6.60;;
6763;SDS011;47432;0.000;0.000;2022-07-29T09:52:59;19.23;;;7.20;;
6763;SDS011;47432;0.000;0.000;2022-07-29T09:55:25;22.00;;;6.97;;
6763;SDS011;47432;0.000;0.000;2022-07-29T09:57:51;19.50;;;6.70;;
6763;SDS011;47432;0.000;0.000;2022-07-29T10:00:19;19.37;;;6.93;;
6763;SDS011;47432;0.000;0.000;2022-07-29T10:02:47;20.27;;;6.57;;
6763;SDS011;47432;0.000;0.000;2022-07-29T10:05:23;18.20;;;6.27;;
6763;SDS011;47432;0.000;0.000;2022-07-29T10:07:54;17.00;;;6.03;;
6763;SDS011;47432;0.000;0.000;2022-07-29T10:10:27;23.70;;;7.27;;
6763;SDS011;47432;0.000;0.000;2022-07-29T10:13:03;17.80;;;6.10;;
6763;SDS011;47432;0.000;0.000;2022-07-29T10:15:35;24.97;;;8.30;;
6763;SDS011;47432;0.000;0.000;2022-07-29T10:18:05;17.83;;;6.60;;
6763;SDS011;47432;0.000;0.000;2022-07-29T10:20:35;26.93;;;7.73;;
6763;SDS011;47432;0.000;0.000;2022-07-29T10:23:02;22.50;;;7.33;;
6763;SDS011;47432;0.000;0.000;2022-07-29T10:25:28;21.67;;;7.07;;
6763;SDS011;47432;0.000;0.000;2022-07-29T10:27:54;23.33;;;7.27;;
6763;SDS011;47432;0.000;0.000;2022-07-29T10:30:21;21.83;;;7.23;;
6763;SDS011;47432;0.000;0.000;2022-07-29T10:41:18;22.57;;;7.70;;
6763;SDS011;47432;0.000;0.000;2022-07-29T10:44:15;20.70;;;7.00;;
6763;SDS011;47432;0.000;0.000;2022-07-29T10:46:46;23.13;;;8.40;;
6763;SDS011;47432;0.000;0.000;2022-07-29T10:49:25;24.03;;;7.83;;
6763;SDS011;47432;0.000;0.000;2022-07-29T10:51:58;20.80;;;8.23;;
6763;SDS011;47432;0.000;0.000;2022-07-29T11:07:28;26.77;;;9.57;;
6763;SDS011;47432;0.000;0.000;2022-07-29T11:15:18;29.83;;;10.10;;
6763;SDS011;47432;0.000;0.000;2022-07-29T11:31:31;30.93;;;11.73;;
6763;SDS011;47432;0.000;0.000;2022-07-29T11:34:23;23.10;;;9.63;;
6763;SDS011;47432;0.000;0.000;2022-07-29T11:39:41;27.07;;;11.53;;
6763;SDS011;47432;0.000;0.000;2022-07-29T11:44:55;29.50;;;11.77;;
6763;SDS011;47432;0.000;0.000;2022-07-29T11:47:22;20.63;;;9.83;;
6763;SDS011;47432;0.000;0.000;2022-07-29T11:49:51;25.67;;;10.63;;
6763;SDS011;47432;0.000;0.000;2022-07-29T11:52:17;19.00;;;9.77;;
6763;SDS011;47432;0.000;0.000;2022-07-29T11:54:44;20.20;;;10.00;;
6763;SDS011;47432;0.000;0.000;2022-07-29T11:57:12;25.93;;;9.60;;
6763;SDS011;47432;0.000;0.000;2022-07-29T11:59:46;21.20;;;8.40;;
6763;SDS011;47432;0.000;0.000;2022-07-29T12:02:13;23.03;;;9.00;;
6763;SDS011;47432;0.000;0.000;2022-07-29T12:04:48;18.00;;;7.07;;
6763;SDS011;47432;0.000;0.000;2022-07-29T12:07:15;17.77;;;6.77;;
6763;SDS011;47432;0.000;0.000;2022-07-29T12:09:49;15.13;;;6.13;;
6763;SDS011;47432;0.000;0.000;2022-07-29T12:12:16;17.70;;;7.87;;
6763;SDS011;47432;0.000;0.000;2022-07-29T12:14:42;15.07;;;6.67;;
6763;SDS011;47432;0.000;0.000;2022-07-29T12:17:33;22.40;;;8.40;;
6763;SDS011;47432;0.000;0.000;2022-07-29T12:20:03;26.70;;;7.47;;
6763;SDS011;47432;0.000;0.000;2022-07-29T12:22:33;16.40;;;5.30;;
6763;SDS011;47432;0.000;0.000;2022-07-29T12:25:09;16.87;;;5.33;;
6763;SDS011;47432;0.000;0.000;2022-07-29T12:27:36;15.83;;;5.47;;
6763;SDS011;47432;0.000;0.000;2022-07-29T12:30:07;15.07;;;5.47;;
6763;SDS011;47432;0.000;0.000;2022-07-29T12:32:40;13.47;;;5.33;;
6763;SDS011;47432;0.000;0.000;2022-07-29T12:37:39;14.13;;;4.77;;
6763;SDS011;47432;0.000;0.000;2022-07-29T12:40:07;15.07;;;5.43;;
6763;SDS011;47432;0.000;0.000;2022-07-29T12:42:34;13.70;;;5.70;;
6763;SDS011;47432;0.000;0.000;2022-07-29T12:45:00;14.43;;;5.57;;
6763;SDS011;47432;0.000;0.000;2022-07-29T12:47:27;13.90;;;5.53;;
6763;SDS011;47432;0.000;0.000;2022-07-29T12:50:09;20.97;;;7.00;;
6763;SDS011;47432;0.000;0.000;2022-07-29T12:52:42;16.90;;;6.10;;
6763;SDS011;47432;0.000;0.000;2022-07-29T12:55:11;16.13;;;6.20;;
6763;SDS011;47432;0.000;0.000;2022-07-29T13:00:13;17.27;;;6.33;;
6763;SDS011;47432;0.000;0.000;2022-07-29T13:02:40;15.20;;;6.00;;
6763;SDS011;47432;0.000;0.000;2022-07-29T13:05:08;15.70;;;6.00;;
6763;SDS011;47432;0.000;0.000;2022-07-29T13:07:36;13.93;;;5.93;;
6763;SDS011;47432;0.000;0.000;2022-07-29T13:10:14;13.27;;;6.23;;
6763;SDS011;47432;0.000;0.000;2022-07-29T13:15:42;15.80;;;6.60;;
6763;SDS011;47432;0.000;0.000;2022-07-29T13:20:57;15.97;;;6.07;;
6763;SDS011;47432;0.000;0.000;2022-07-29T13:23:35;15.57;;;6.27;;
6763;SDS011;47432;0.000;0.000;2022-07-29T13:26:12;14.10;;;6.67;;
6763;SDS011;47432;0.000;0.000;2022-07-29T13:28:38;15.70;;;6.47;;
6763;SDS011;47432;0.000;0.000;2022-07-29T13:31:05;28.70;;;9.20;;
6763;SDS011;47432;0.000;0.000;2022-07-29T13:33:31;15.80;;;7.13;;
6763;SDS011;47432;0.000;0.000;2022-07-29T13:35:56;17.93;;;7.63;;
6763;SDS011;47432;0.000;0.000;2022-07-29T13:38:22;16.00;;;7.43;;
6763;SDS011;47432;0.000;0.000;2022-07-29T13:40:48;18.77;;;6.87;;
6763;SDS011;47432;0.000;0.000;2022-07-29T13:43:14;18.90;;;8.13;;
6763;SDS011;47432;0.000;0.000;2022-07-29T13:45:42;19.07;;;7.13;;
6763;SDS011;47432;0.000;0.000;2022-07-29T13:48:08;18.30;;;8.27;;
6763;SDS011;47432;0.000;0.000;2022-07-29T13:50:34;19.30;;;7.80;;
6763;SDS011;47432;0.000;0.000;2022-07-29T13:53:00;18.40;;;7.93;;
6763;SDS011;47432;0.000;0.000;2022-07-29T13:55:26;15.63;;;7.33;;
6763;SDS011;47432;0.000;0.000;2022-07-29T13:57:52;21.10;;;8.07;;
6763;SDS011;47432;0.000;0.000;2022-07-29T14:00:18;20.30;;;7.93;;
6763;SDS011;47432;0.000;0.000;2022-07-29T14:02:46;15.20;;;7.30;;
6763;SDS011;47432;0.000;0.000;2022-07-29T14:05:14;14.73;;;6.97;;
6763;SDS011;47432;0.000;0.000;2022-07-29T14:07:40;14.20;;;7.63;;
6763;SDS011;47432;0.000;0.000;2022-07-29T14:10:09;20.50;;;7.77;;
6763;SDS011;47432;0.000;0.000;2022-07-29T14:12:35;17.70;;;7.20;;
6763;SDS011;47432;0.000;0.000;2022-07-29T14:15:04;16.87;;;7.97;;
6763;SDS011;47432;0.000;0.000;2022-07-29T14:17:33;18.10;;;8.03;;
6763;SDS011;47432;0.000;0.000;2022-07-29T14:19:59;28.10;;;9.23;;
6763;SDS011;47432;0.000;0.000;2022-07-29T14:22:25;15.80;;;7.77;;
6763;SDS011;47432;0.000;0.000;2022-07-29T14:24:54;22.33;;;7.47;;
6763;SDS011;47432;0.000;0.000;2022-07-29T14:27:20;16.50;;;7.20;;
6763;SDS011;47432;0.000;0.000;2022-07-29T14:29:45;17.47;;;7.53;;
6763;SDS011;47432;0.000;0.000;2022-07-29T14:32:11;26.83;;;9.30;;
6763;SDS011;47432;0.000;0.000;2022-07-29T14:34:39;20.13;;;8.67;;
6763;SDS011;47432;0.000;0.000;2022-07-29T14:37:05;23.90;;;8.87;;
6763;SDS011;47432;0.000;0.000;2022-07-29T14:39:32;20.90;;;9.10;;
6763;SDS011;47432;0.000;0.000;2022-07-29T14:41:58;16.47;;;7.47;;
6763;SDS011;47432;0.000;0.000;2022-07-29T14:44:24;18.47;;;7.53;;
6763;SDS011;47432;0.000;0.000;2022-07-29T14:46:55;17.63;;;7.13;;
6763;SDS011;47432;0.000;0.000;2022-07-29T14:49:24;24.80;;;8.43;;
6763;SDS011;47432;0.000;0.000;2022-07-29T14:51:52;16.40;;;7.40;;
6763;SDS011;47432;0.000;0.000;2022-07-29T14:54:18;15.60;;;6.83;;
6763;SDS011;47432;0.000;0.000;2022-07-29T14:56:44;17.03;;;8.37;;
6763;SDS011;47432;0.000;0.000;2022-07-29T14:59:11;21.07;;;8.00;;
6763;SDS011;47432;0.000;0.000;2022-07-29T15:01:37;15.37;;;7.40;;
6763;SDS011;47432;0.000;0.000;2022-07-29T15:04:03;21.43;;;8.13;;
6763;SDS011;47432;0.000;0.000;2022-07-29T15:06:30;28.23;;;9.53;;
6763;SDS011;47432;0.000;0.000;2022-07-29T15:08:58;31.00;;;9.77;;
6763;SDS011;47432;0.000;0.000;2022-07-29T15:11:25;17.73;;;7.90;;
6763;SDS011;47432;0.000;0.000;2022-07-29T15:13:53;14.37;;;7.50;;
6763;SDS011;47432;0.000;0.000;2022-07-29T15:16:19;19.53;;;8.53;;
6763;SDS011;47432;0.000;0.000;2022-07-29T15:18:47;24.73;;;9.63;;
6763;SDS011;47432;0.000;0.000;2022-07-29T15:21:13;22.03;;;9.43;;
6763;SDS011;47432;0.000;0.000;2022-07-29T15:23:40;17.67;;;8.10;;
6763;SDS011;47432;0.000;0.000;2022-07-29T15:26:08;19.27;;;8.60;;
6763;SDS011;47432;0.000;0.000;2022-07-29T15:28:34;20.80;;;9.13;;
6763;SDS011;47432;0.000;0.000;2022-07-29T15:31:03;18.00;;;8.17;;
6763;SDS011;47432;0.000;0.000;2022-07-29T15:33:31;20.87;;;8.53;;
6763;SDS011;47432;0.000;0.000;2022-07-29T15:35:57;26.50;;;9.93;;
6763;SDS011;47432;0.000;0.000;2022-07-29T15:38:23;19.07;;;9.77;;
6763;SDS011;47432;0.000;0.000;2022-07-29T15:40:49;21.97;;;10.10;;
6763;SDS011;47432;0.000;0.000;2022-07-29T15:43:15;20.57;;;9.40;;
6763;SDS011;47432;0.000;0.000;2022-07-29T15:45:42;20.40;;;10.03;;
6763;SDS011;47432;0.000;0.000;2022-07-29T15:48:28;23.80;;;10.03;;
6763;SDS011;47432;0.000;0.000;2022-07-29T15:50:56;20.80;;;9.40;;
6763;SDS011;47432;0.000;0.000;2022-07-29T15:53:23;19.30;;;8.87;;
6763;SDS011;47432;0.000;0.000;2022-07-29T15:55:50;32.17;;;11.63;;
6763;SDS011;47432;0.000;0.000;2022-07-29T15:58:16;18.50;;;8.97;;
6763;SDS011;47432;0.000;0.000;2022-07-29T16:00:44;25.40;;;9.33;;
6763;SDS011;47432;0.000;0.000;2022-07-29T16:03:10;20.90;;;9.07;;
6763;SDS011;47432;0.000;0.000;2022-07-29T16:05:36;18.77;;;8.87;;
6763;SDS011;47432;0.000;0.000;2022-07-29T16:08:02;25.90;;;10.97;;
6763;SDS011;47432;0.000;0.000;2022-07-29T16:10:28;19.80;;;9.00;;
6763;SDS011;47432;0.000;0.000;2022-07-29T16:12:54;23.73;;;9.53;;
6763;SDS011;47432;0.000;0.000;2022-07-29T16:15:20;25.23;;;10.20;;